Time,TemperatureF,DewpointF,PressureIn,WindDirection,WindDirectionDegrees,WindSpeedMPH,WindSpeedGustMPH,Humidity,HourlyPrecipIn,Conditions,Clouds,dailyrainin,SolarRadiationWatts/m^2,SoftwareType,DateUTC
2013-05-31 00:01:00,79.3,77.1,29.81,East,80,11.5,11.5,93,0.00,CLR,SKC,0.00,0.0,WeatherDisplay:10.37,2013-05-31 05:01:00,
2013-05-31 00:06:00,79.3,77.1,29.81,ESE,105,11.5,11.5,93,0.00,CLR,SKC,0.00,0.0,WeatherDisplay:10.37,2013-05-31 05:06:00,
2013-05-31 00:11:00,79.3,77.1,29.81,SE,141,11.5,11.5,93,0.00,CLR,SKC,0.00,0.0,WeatherDisplay:10.37,2013-05-31 05:11:00,
2013-05-31 00:16:00,79.3,77.1,29.81,ESE,108,11.5,11.5,93,0.00,CLR,SKC,0.00,0.0,WeatherDisplay:10.37,2013-05-31 05:16:00,
2013-05-31 00:21:00,79.2,77.0,29.81,SE,132,15.0,15.0,93,0.00,CLR,SKC,0.00,0.0,WeatherDisplay:10.37,2013-05-31 05:21:00,
2013-05-31 00:26:00,79.2,77.0,29.81,SE,125,12.7,12.7,93,0.00,CLR,SKC,0.00,0.0,WeatherDisplay:10.37,2013-05-31 05:26:00,
2013-05-31 00:31:00,79.3,77.1,29.81,SE,142,11.5,11.5,93,0.00,CLR,SKC,0.00,0.0,WeatherDisplay:10.37,2013-05-31 05:31:00,
2013-05-31 00:36:00,79.3,77.1,29.81,SE,143,9.2,9.2,93,0.00,CLR,SKC,0.00,0.0,WeatherDisplay:10.37,2013-05-31 05:36:00,
2013-05-31 00:41:00,79.2,77.0,29.81,ESE,109,15.0,15.0,93,0.00,CLR,SKC,0.00,0.0,WeatherDisplay:10.37,2013-05-31 05:41:00,
2013-05-31 00:46:00,79.2,77.0,29.81,South,174,11.5,11.5,93,0.00,CLR,SKC,0.00,0.0,WeatherDisplay:10.37,2013-05-31 05:46:00,
2013-05-31 00:51:00,79.3,77.1,29.81,SSE,154,11.5,11.5,93,0.00,CLR,SKC,0.00,0.0,WeatherDisplay:10.37,2013-05-31 05:51:00,
2013-05-31 00:56:00,79.1,76.9,29.81,SSW,194,10.4,10.4,93,0.00,CLR,SKC,0.00,0.0,WeatherDisplay:10.37,2013-05-31 05:56:00,
2013-05-31 01:01:00,79.2,77.0,29.81,SE,138,13.8,13.8,93,0.00,CLR,SKC,0.00,0.0,WeatherDisplay:10.37,2013-05-31 06:01:00,
2013-05-31 01:06:00,79.2,77.0,29.81,SE,130,10.4,10.4,93,0.00,CLR,SKC,0.00,0.0,WeatherDisplay:10.37,2013-05-31 06:06:00,
2013-05-31 01:11:00,79.2,77.0,29.81,SE,131,11.5,11.5,93,0.00,CLR,SKC,0.00,0.0,WeatherDisplay:10.37,2013-05-31 06:11:00,
2013-05-31 01:16:00,79.1,76.9,29.81,SE,140,9.2,9.2,93,0.00,CLR,SKC,0.00,0.0,WeatherDisplay:10.37,2013-05-31 06:16:00,
2013-05-31 01:21:00,79.2,77.0,29.81,SE,144,6.9,6.9,93,0.00,CLR,SKC,0.00,0.0,WeatherDisplay:10.37,2013-05-31 06:21:00,
2013-05-31 01:26:00,79.1,76.9,29.81,SE,126,11.5,11.5,93,0.00,CLR,SKC,0.00,0.0,WeatherDisplay:10.37,2013-05-31 06:26:00,
2013-05-31 01:31:00,79.1,76.9,29.81,SE,128,11.5,11.5,93,0.00,CLR,SKC,0.00,0.0,WeatherDisplay:10.37,2013-05-31 06:31:00,
2013-05-31 01:36:00,79.1,76.9,29.81,ESE,109,9.2,9.2,93,0.00,CLR,SKC,0.00,0.0,WeatherDisplay:10.37,2013-05-31 06:36:00,
2013-05-31 01:41:00,79.1,76.9,29.81,East,88,8.0,8.0,93,0.00,CLR,SKC,0.00,0.0,WeatherDisplay:10.37,2013-05-31 06:41:00,
2013-05-31 01:46:00,79.1,76.9,29.81,ESE,118,11.5,11.5,93,0.00,CLR,SKC,0.00,0.0,WeatherDisplay:10.37,2013-05-31 06:46:00,
2013-05-31 01:51:00,79.0,76.8,29.81,SSW,195,9.2,9.2,93,0.00,CLR,SKC,0.00,0.0,WeatherDisplay:10.37,2013-05-31 06:51:00,
2013-05-31 01:56:00,79.1,76.9,29.81,SE,146,8.1,8.1,93,0.00,CLR,SKC,0.00,0.0,WeatherDisplay:10.37,2013-05-31 06:56:00,
2013-05-31 02:01:00,79.1,76.9,29.81,ESE,115,13.8,13.8,93,0.00,CLR,SKC,0.00,0.0,WeatherDisplay:10.37,2013-05-31 07:01:00,
2013-05-31 02:06:00,79.1,76.9,29.81,ESE,122,10.4,10.4,93,0.00,CLR,SKC,0.00,0.0,WeatherDisplay:10.37,2013-05-31 07:06:00,
2013-05-31 02:11:00,79.1,76.9,29.80,SE,131,8.1,8.1,93,0.00,CLR,SKC,0.00,0.0,WeatherDisplay:10.37,2013-05-31 07:11:00,
2013-05-31 02:16:00,79.1,76.9,29.80,SE,142,9.2,9.2,93,0.00,CLR,SKC,0.00,0.0,WeatherDisplay:10.37,2013-05-31 07:16:00,
2013-05-31 02:21:00,79.0,76.8,29.80,SE,128,11.5,11.5,93,0.00,CLR,SKC,0.00,0.0,WeatherDisplay:10.37,2013-05-31 07:21:00,
2013-05-31 02:26:00,79.1,76.9,29.80,SE,141,10.4,10.4,93,0.00,CLR,SKC,0.00,0.0,WeatherDisplay:10.37,2013-05-31 07:26:00,
2013-05-31 02:31:00,79.0,76.8,29.80,South,189,10.4,10.4,93,0.00,CLR,SKC,0.00,0.0,WeatherDisplay:10.37,2013-05-31 07:31:00,
2013-05-31 02:36:00,78.9,76.7,29.80,ESE,121,11.5,11.5,93,0.00,CLR,SKC,0.00,0.0,WeatherDisplay:10.37,2013-05-31 07:36:00,
2013-05-31 02:41:00,78.9,76.7,29.80,East,101,11.5,11.5,93,0.00,CLR,SKC,0.00,0.0,WeatherDisplay:10.37,2013-05-31 07:41:00,
2013-05-31 02:46:00,78.9,76.7,29.80,SSE,153,12.7,12.7,93,0.00,CLR,SKC,0.00,0.0,WeatherDisplay:10.37,2013-05-31 07:46:00,
2013-05-31 02:51:00,78.9,76.7,29.80,East,98,11.5,11.5,93,0.00,CLR,SKC,0.00,0.0,WeatherDisplay:10.37,2013-05-31 07:51:00,
2013-05-31 02:56:00,78.9,76.7,29.80,SE,146,9.2,9.2,93,0.00,CLR,SKC,0.00,0.0,WeatherDisplay:10.37,2013-05-31 07:56:00,
2013-05-31 03:01:00,78.9,76.7,29.80,ESE,111,10.4,10.4,93,0.00,CLR,SKC,0.00,0.0,WeatherDisplay:10.37,2013-05-31 08:01:00,
2013-05-31 03:06:00,78.9,76.7,29.80,SE,128,9.2,9.2,93,0.00,CLR,SKC,0.00,0.0,WeatherDisplay:10.37,2013-05-31 08:06:00,
2013-05-31 03:11:00,78.9,76.7,29.80,SE,144,12.0,12.0,93,0.00,CLR,SKC,0.00,0.0,WeatherDisplay:10.37,2013-05-31 08:11:00,
2013-05-31 03:16:00,78.8,76.6,29.80,East,95,6.9,6.9,93,0.00,CLR,SKC,0.00,0.0,WeatherDisplay:10.37,2013-05-31 08:16:00,
2013-05-31 03:21:00,78.8,76.6,29.80,SE,142,12.7,12.7,93,0.00,CLR,SKC,0.00,0.0,WeatherDisplay:10.37,2013-05-31 08:21:00,
2013-05-31 03:26:00,78.8,76.6,29.79,SE,144,10.4,10.4,93,0.00,CLR,SKC,0.00,0.0,WeatherDisplay:10.37,2013-05-31 08:26:00,
2013-05-31 03:31:00,78.8,76.6,29.79,SE,124,12.7,12.7,93,0.00,CLR,SKC,0.00,0.0,WeatherDisplay:10.37,2013-05-31 08:31:00,
2013-05-31 03:36:00,78.9,76.7,29.79,ESE,110,9.2,9.2,93,0.00,CLR,SKC,0.00,0.0,WeatherDisplay:10.37,2013-05-31 08:36:00,
2013-05-31 03:41:00,78.8,76.6,29.79,ESE,121,13.8,13.8,93,0.00,CLR,SKC,0.00,0.0,WeatherDisplay:10.37,2013-05-31 08:41:00,
2013-05-31 03:46:00,78.8,76.6,29.79,ESE,113,8.1,8.1,93,0.00,CLR,SKC,0.00,0.0,WeatherDisplay:10.37,2013-05-31 08:46:00,
2013-05-31 03:51:00,78.8,76.6,29.79,SSE,159,11.5,11.5,93,0.00,CLR,SKC,0.00,0.0,WeatherDisplay:10.37,2013-05-31 08:51:00,
2013-05-31 03:56:00,78.8,76.6,29.80,SSW,205,11.5,11.5,93,0.00,CLR,SKC,0.00,0.0,WeatherDisplay:10.37,2013-05-31 08:56:00,
2013-05-31 04:01:00,79.0,76.8,29.80,ESE,106,9.2,9.2,93,0.00,CLR,SKC,0.00,0.0,WeatherDisplay:10.37,2013-05-31 09:01:00,
2013-05-31 04:06:00,79.0,76.5,29.80,SE,126,11.0,11.0,92,0.00,CLR,SKC,0.00,0.0,WeatherDisplay:10.37,2013-05-31 09:06:00,
2013-05-31 04:11:00,79.1,76.6,29.80,South,178,10.4,10.4,92,0.00,CLR,SKC,0.00,0.0,WeatherDisplay:10.37,2013-05-31 09:11:00,
2013-05-31 04:16:00,79.1,76.6,29.80,SE,143,13.8,13.8,92,0.00,CLR,SKC,0.00,0.0,WeatherDisplay:10.37,2013-05-31 09:16:00,
2013-05-31 04:21:00,79.2,76.7,29.80,SE,126,12.7,12.7,92,0.00,CLR,SKC,0.00,0.0,WeatherDisplay:10.37,2013-05-31 09:21:00,
2013-05-31 04:26:00,79.1,76.6,29.80,East,86,9.2,9.2,92,0.00,CLR,SKC,0.00,0.0,WeatherDisplay:10.37,2013-05-31 09:26:00,
2013-05-31 04:31:00,79.2,76.7,29.80,South,186,13.8,13.8,92,0.00,CLR,SKC,0.00,0.0,WeatherDisplay:10.37,2013-05-31 09:31:00,
2013-05-31 04:36:00,79.2,76.7,29.80,SE,132,13.0,13.0,92,0.00,CLR,SKC,0.00,0.0,WeatherDisplay:10.37,2013-05-31 09:36:00,
2013-05-31 04:41:00,79.2,76.7,29.80,SSE,150,9.2,9.2,92,0.00,CLR,SKC,0.00,0.0,WeatherDisplay:10.37,2013-05-31 09:41:00,
2013-05-31 04:46:00,79.1,76.6,29.80,SSE,155,12.7,12.7,92,0.00,CLR,SKC,0.00,0.0,WeatherDisplay:10.37,2013-05-31 09:46:00,
2013-05-31 04:51:00,79.3,76.8,29.80,ESE,121,9.2,9.2,92,0.00,CLR,SKC,0.00,0.0,WeatherDisplay:10.37,2013-05-31 09:51:00,
2013-05-31 04:56:00,79.2,76.7,29.80,SE,146,12.7,12.7,92,0.00,CLR,SKC,0.00,0.0,WeatherDisplay:10.37,2013-05-31 09:56:00,
2013-05-31 05:01:00,79.2,76.7,29.80,SSE,154,9.2,9.2,92,0.00,CLR,SKC,0.00,0.0,WeatherDisplay:10.37,2013-05-31 10:01:00,
2013-05-31 05:06:00,79.3,76.8,29.80,SE,133,6.9,6.9,92,0.00,CLR,SKC,0.00,0.0,WeatherDisplay:10.37,2013-05-31 10:06:00,
2013-05-31 05:11:00,79.3,76.8,29.80,SSE,165,8.1,8.1,92,0.00,CLR,SKC,0.00,0.0,WeatherDisplay:10.37,2013-05-31 10:11:00,
2013-05-31 05:16:00,79.3,76.8,29.80,SE,143,11.5,11.5,92,0.00,CLR,SKC,0.00,0.0,WeatherDisplay:10.37,2013-05-31 10:16:00,
2013-05-31 05:21:00,79.3,76.8,29.80,SE,134,13.8,13.8,92,0.00,CLR,SKC,0.00,0.0,WeatherDisplay:10.37,2013-05-31 10:21:00,
2013-05-31 05:26:00,79.3,76.8,29.79,South,169,11.5,11.5,92,0.00,CLR,SKC,0.00,0.0,WeatherDisplay:10.37,2013-05-31 10:26:00,
2013-05-31 05:31:00,79.2,76.7,29.79,SSE,158,16.1,16.1,92,0.00,CLR,SKC,0.00,0.0,WeatherDisplay:10.37,2013-05-31 10:31:00,
2013-05-31 05:36:00,79.2,76.7,29.79,SE,126,11.5,11.5,92,0.00,CLR,SKC,0.00,0.0,WeatherDisplay:10.37,2013-05-31 10:36:00,
2013-05-31 05:41:00,79.2,76.7,29.80,SE,142,9.2,9.2,92,0.00,CLR,SKC,0.00,0.0,WeatherDisplay:10.37,2013-05-31 10:41:00,
2013-05-31 05:46:00,79.3,76.8,29.80,South,181,6.9,6.9,92,0.00,CLR,SKC,0.00,0.0,WeatherDisplay:10.37,2013-05-31 10:46:00,
2013-05-31 05:51:00,79.3,76.8,29.80,SSE,153,7.0,7.0,92,0.00,CLR,SKC,0.00,0.0,WeatherDisplay:10.37,2013-05-31 10:51:00,
2013-05-31 05:56:00,79.2,76.7,29.80,SE,137,11.5,11.5,92,0.00,CLR,SKC,0.00,0.0,WeatherDisplay:10.37,2013-05-31 10:56:00,
2013-05-31 06:01:00,79.2,76.7,29.80,ESE,113,10.4,10.4,92,0.00,CLR,SKC,0.00,0.0,WeatherDisplay:10.37,2013-05-31 11:01:00,
2013-05-31 06:06:00,79.3,76.8,29.80,SSE,155,10.4,10.4,92,0.00,CLR,SKC,0.00,0.0,WeatherDisplay:10.37,2013-05-31 11:06:00,
2013-05-31 06:11:00,79.2,76.7,29.81,SSE,162,10.4,10.4,92,0.00,CLR,SKC,0.00,0.0,WeatherDisplay:10.37,2013-05-31 11:11:00,
2013-05-31 06:16:00,79.3,76.8,29.81,South,173,9.2,9.2,92,0.00,CLR,SKC,0.00,0.0,WeatherDisplay:10.37,2013-05-31 11:16:00,
2013-05-31 06:21:00,79.3,76.8,29.81,SW,220,11.5,11.5,92,0.00,CLR,SKC,0.00,0.0,WeatherDisplay:10.37,2013-05-31 11:21:00,
2013-05-31 06:26:00,79.3,76.8,29.81,SE,144,11.5,11.5,92,0.00,CLR,SKC,0.00,0.0,WeatherDisplay:10.37,2013-05-31 11:26:00,
2013-05-31 06:31:00,79.3,76.8,29.81,SE,146,5.8,5.8,92,0.00,CLR,SKC,0.00,0.0,WeatherDisplay:10.37,2013-05-31 11:31:00,
2013-05-31 06:36:00,79.4,76.9,29.81,SE,136,7.0,7.0,92,0.00,CLR,SKC,0.00,0.0,WeatherDisplay:10.37,2013-05-31 11:36:00,
2013-05-31 06:41:00,79.4,76.9,29.81,SSE,157,6.9,6.9,92,0.00,CLR,SKC,0.00,0.0,WeatherDisplay:10.37,2013-05-31 11:41:00,
2013-05-31 06:46:00,79.4,76.9,29.81,SW,221,10.4,10.4,92,0.00,CLR,SKC,0.00,5.0,WeatherDisplay:10.37,2013-05-31 11:46:00,
2013-05-31 06:51:00,79.3,76.8,29.81,ESE,114,6.0,6.0,92,0.00,CLR,SKC,0.00,12.0,WeatherDisplay:10.37,2013-05-31 11:51:00,
2013-05-31 06:56:00,79.2,76.7,29.81,SW,218,5.8,5.8,92,0.00,CLR,SKC,0.00,12.0,WeatherDisplay:10.37,2013-05-31 11:56:00,
2013-05-31 07:01:00,79.2,76.3,29.81,ESE,119,9.2,9.2,91,0.00,CLR,SKC,0.00,19.0,WeatherDisplay:10.37,2013-05-31 12:01:00,
2013-05-31 07:06:00,79.4,76.5,29.81,SE,146,6.9,6.9,91,0.00,CLR,SKC,0.00,42.0,WeatherDisplay:10.37,2013-05-31 12:06:00,
2013-05-31 07:11:00,79.4,76.5,29.82,South,174,5.8,5.8,91,0.00,CLR,SKC,0.00,26.0,WeatherDisplay:10.37,2013-05-31 12:11:00,
2013-05-31 07:16:00,79.5,76.6,29.82,SE,138,11.5,11.5,91,0.00,CLR,SKC,0.00,19.0,WeatherDisplay:10.37,2013-05-31 12:16:00,
2013-05-31 07:21:00,79.5,76.6,29.82,SSE,156,5.8,5.8,91,0.00,CLR,SKC,0.00,26.0,WeatherDisplay:10.37,2013-05-31 12:21:00,
2013-05-31 07:26:00,79.5,76.6,29.82,SE,134,11.5,11.5,91,0.00,CLR,SKC,0.00,79.0,WeatherDisplay:10.37,2013-05-31 12:26:00,
2013-05-31 07:31:00,79.6,76.7,29.82,South,180,11.5,11.5,91,0.00,CLR,SKC,0.00,162.0,WeatherDisplay:10.37,2013-05-31 12:31:00,
2013-05-31 07:36:00,79.7,76.8,29.82,East,85,10.4,10.4,91,0.00,CLR,SKC,0.00,56.0,WeatherDisplay:10.37,2013-05-31 12:36:00,
2013-05-31 07:41:00,79.8,76.6,29.83,SSE,151,5.8,5.8,90,0.00,CLR,SKC,0.00,51.0,WeatherDisplay:10.37,2013-05-31 12:41:00,
2013-05-31 07:46:00,80.0,76.8,29.83,South,181,9.2,9.2,90,0.00,CLR,SKC,0.00,84.0,WeatherDisplay:10.37,2013-05-31 12:46:00,
2013-05-31 07:51:00,80.1,76.9,29.83,SE,126,9.2,9.2,90,0.00,CLR,SKC,0.00,53.0,WeatherDisplay:10.37,2013-05-31 12:51:00,
2013-05-31 07:56:00,80.2,77.0,29.84,SSE,160,9.2,9.2,90,0.00,CLR,SKC,0.00,44.0,WeatherDisplay:10.37,2013-05-31 12:56:00,
2013-05-31 08:01:00,80.2,77.0,29.84,South,190,3.5,3.5,90,0.00,CLR,SKC,0.00,69.0,WeatherDisplay:10.37,2013-05-31 13:01:00,
2013-05-31 08:06:00,80.4,77.5,29.84,SE,136,10.4,10.4,91,0.00,CLR,SKC,0.00,134.0,WeatherDisplay:10.37,2013-05-31 13:06:00,
2013-05-31 08:11:00,80.4,77.2,29.84,South,187,16.0,16.0,90,0.00,CLR,SKC,0.00,81.0,WeatherDisplay:10.37,2013-05-31 13:11:00,
2013-05-31 08:16:00,80.4,77.2,29.84,SE,134,6.9,6.9,90,0.00,CLR,SKC,0.00,98.0,WeatherDisplay:10.37,2013-05-31 13:16:00,
2013-05-31 08:21:00,80.5,77.3,29.84,South,169,6.9,6.9,90,0.00,CLR,SKC,0.00,49.0,WeatherDisplay:10.37,2013-05-31 13:21:00,
2013-05-31 08:26:00,80.7,77.5,29.84,ESE,112,9.2,9.2,90,0.00,CLR,SKC,0.00,74.0,WeatherDisplay:10.37,2013-05-31 13:26:00,
2013-05-31 08:31:00,80.7,77.5,29.84,SE,145,7.0,7.0,90,0.00,CLR,SKC,0.00,353.0,WeatherDisplay:10.37,2013-05-31 13:31:00,
2013-05-31 08:36:00,80.7,77.5,29.84,South,171,11.5,11.5,90,0.00,CLR,SKC,0.00,118.0,WeatherDisplay:10.37,2013-05-31 13:36:00,
2013-05-31 08:41:00,80.7,77.2,29.85,SSE,162,9.2,9.2,89,0.00,CLR,SKC,0.00,134.0,WeatherDisplay:10.37,2013-05-31 13:41:00,
2013-05-31 08:46:00,80.7,77.2,29.85,SE,146,12.7,12.7,89,0.00,CLR,SKC,0.00,160.0,WeatherDisplay:10.37,2013-05-31 13:46:00,
2013-05-31 08:51:00,80.8,77.3,29.85,SSE,161,11.5,11.5,89,0.00,CLR,SKC,0.00,174.0,WeatherDisplay:10.37,2013-05-31 13:51:00,
2013-05-31 08:56:00,81.0,77.4,29.85,South,184,5.8,5.8,89,0.00,CLR,SKC,0.00,206.0,WeatherDisplay:10.37,2013-05-31 13:56:00,
2013-05-31 09:01:00,81.1,77.5,29.85,SSE,154,10.4,10.4,89,0.00,CLR,SKC,0.00,197.0,WeatherDisplay:10.37,2013-05-31 14:01:00,
2013-05-31 09:06:00,81.3,77.7,29.85,SE,146,9.2,9.2,89,0.00,CLR,SKC,0.00,199.0,WeatherDisplay:10.37,2013-05-31 14:06:00,
2013-05-31 09:11:00,81.3,77.7,29.85,SSE,165,15.0,15.0,89,0.00,CLR,SKC,0.00,141.0,WeatherDisplay:10.37,2013-05-31 14:11:00,
2013-05-31 09:16:00,81.4,77.8,29.85,SE,145,8.1,8.1,89,0.00,CLR,SKC,0.00,246.0,WeatherDisplay:10.37,2013-05-31 14:16:00,
2013-05-31 09:21:00,81.4,77.8,29.85,SE,138,9.2,9.2,89,0.00,CLR,SKC,0.00,156.0,WeatherDisplay:10.37,2013-05-31 14:21:00,
2013-05-31 09:26:00,81.6,78.0,29.85,SE,134,8.1,8.1,89,0.00,CLR,SKC,0.00,216.0,WeatherDisplay:10.37,2013-05-31 14:26:00,
2013-05-31 09:31:00,81.6,78.0,29.85,SSE,147,9.0,9.0,89,0.00,CLR,SKC,0.00,304.0,WeatherDisplay:10.37,2013-05-31 14:31:00,
2013-05-31 09:36:00,81.8,77.9,29.85,SSE,159,11.5,11.5,88,0.00,CLR,SKC,0.00,339.0,WeatherDisplay:10.37,2013-05-31 14:36:00,
2013-05-31 09:41:00,82.0,78.1,29.85,ESE,110,4.6,4.6,88,0.00,CLR,SKC,0.00,316.0,WeatherDisplay:10.37,2013-05-31 14:41:00,
2013-05-31 09:46:00,82.2,78.3,29.85,SSE,150,9.2,9.2,88,0.00,CLR,SKC,0.00,418.0,WeatherDisplay:10.37,2013-05-31 14:46:00,
2013-05-31 09:51:00,82.4,78.1,29.85,SE,143,12.7,12.7,87,0.00,CLR,SKC,0.00,366.0,WeatherDisplay:10.37,2013-05-31 14:51:00,
2013-05-31 09:56:00,82.5,78.2,29.85,SSE,148,11.5,11.5,87,0.00,CLR,SKC,0.00,504.0,WeatherDisplay:10.37,2013-05-31 14:56:00,
2013-05-31 10:01:00,82.5,77.9,29.85,South,171,11.0,11.0,86,0.00,CLR,SKC,0.00,339.0,WeatherDisplay:10.37,2013-05-31 15:01:00,
2013-05-31 10:06:00,82.8,78.5,29.85,SSE,166,9.0,9.0,87,0.00,CLR,SKC,0.00,650.0,WeatherDisplay:10.37,2013-05-31 15:06:00,
2013-05-31 10:11:00,82.9,78.3,29.85,East,94,10.4,10.4,86,0.00,CLR,SKC,0.00,675.0,WeatherDisplay:10.37,2013-05-31 15:11:00,
2013-05-31 10:16:00,83.2,78.2,29.85,SE,133,13.8,13.8,85,0.00,CLR,SKC,0.00,710.0,WeatherDisplay:10.37,2013-05-31 15:16:00,
2013-05-31 10:21:00,83.1,78.1,29.85,SE,126,11.5,11.5,85,0.00,CLR,SKC,0.00,698.0,WeatherDisplay:10.37,2013-05-31 15:21:00,
2013-05-31 10:26:00,83.3,78.3,29.85,ESE,105,11.5,11.5,85,0.00,CLR,SKC,0.00,707.0,WeatherDisplay:10.37,2013-05-31 15:26:00,
2013-05-31 10:31:00,83.4,78.4,29.85,SSE,148,11.5,11.5,85,0.00,CLR,SKC,0.00,729.0,WeatherDisplay:10.37,2013-05-31 15:31:00,
2013-05-31 10:36:00,83.5,78.5,29.85,SSE,156,11.5,11.5,85,0.00,CLR,SKC,0.00,772.0,WeatherDisplay:10.37,2013-05-31 15:36:00,
2013-05-31 10:41:00,83.5,78.2,29.85,ESE,103,10.4,10.4,84,0.00,CLR,SKC,0.00,893.0,WeatherDisplay:10.37,2013-05-31 15:41:00,
2013-05-31 10:46:00,83.5,78.2,29.85,SE,140,11.5,11.5,84,0.00,CLR,SKC,0.00,309.0,WeatherDisplay:10.37,2013-05-31 15:46:00,
2013-05-31 10:51:00,83.6,78.2,29.85,SE,134,11.5,11.5,84,0.00,CLR,SKC,0.00,731.0,WeatherDisplay:10.37,2013-05-31 15:51:00,
2013-05-31 10:56:00,84.0,78.6,29.85,SSE,153,11.5,11.5,84,0.00,CLR,SKC,0.00,756.0,WeatherDisplay:10.37,2013-05-31 15:56:00,
2013-05-31 11:01:00,84.0,78.3,29.85,ESE,113,12.0,12.0,83,0.00,CLR,SKC,0.00,798.0,WeatherDisplay:10.37,2013-05-31 16:01:00,
2013-05-31 11:06:00,84.3,78.6,29.85,SSE,153,10.4,10.4,83,0.00,CLR,SKC,0.00,833.0,WeatherDisplay:10.37,2013-05-31 16:06:00,
2013-05-31 11:11:00,84.2,78.5,29.85,SE,144,10.4,10.4,83,0.00,CLR,SKC,0.00,833.0,WeatherDisplay:10.37,2013-05-31 16:11:00,
2013-05-31 11:16:00,84.4,78.7,29.85,SSE,153,9.2,9.2,83,0.00,CLR,SKC,0.00,831.0,WeatherDisplay:10.37,2013-05-31 16:16:00,
2013-05-31 11:21:00,84.5,78.4,29.85,ESE,111,11.0,11.0,82,0.00,CLR,SKC,0.00,846.0,WeatherDisplay:10.37,2013-05-31 16:21:00,
2013-05-31 11:26:00,84.4,78.3,29.86,SE,128,11.0,11.0,82,0.00,CLR,SKC,0.00,301.0,WeatherDisplay:10.37,2013-05-31 16:26:00,
2013-05-31 11:31:00,84.3,78.2,29.86,SSE,159,11.5,11.5,82,0.00,CLR,SKC,0.00,942.0,WeatherDisplay:10.37,2013-05-31 16:31:00,
2013-05-31 11:36:00,84.3,78.6,29.86,SSE,161,9.2,9.2,83,0.00,CLR,SKC,0.00,868.0,WeatherDisplay:10.37,2013-05-31 16:36:00,
2013-05-31 11:41:00,84.3,78.6,29.85,SSE,151,12.7,12.7,83,0.00,CLR,SKC,0.00,867.0,WeatherDisplay:10.37,2013-05-31 16:41:00,
2013-05-31 11:46:00,84.3,78.6,29.85,SE,126,13.8,13.8,83,0.00,CLR,SKC,0.00,868.0,WeatherDisplay:10.37,2013-05-31 16:46:00,
2013-05-31 11:51:00,84.7,78.6,29.85,SE,130,9.0,9.0,82,0.00,CLR,SKC,0.00,875.0,WeatherDisplay:10.37,2013-05-31 16:51:00,
2013-05-31 11:56:00,84.8,78.7,29.85,SE,142,11.5,11.5,82,0.00,CLR,SKC,0.00,882.0,WeatherDisplay:10.37,2013-05-31 16:56:00,
2013-05-31 12:01:00,84.6,78.5,29.85,SSW,202,12.7,12.7,82,0.00,CLR,SKC,0.00,889.0,WeatherDisplay:10.37,2013-05-31 17:01:00,
2013-05-31 12:06:00,84.5,78.4,29.85,SE,135,12.7,12.7,82,0.00,CLR,SKC,0.00,893.0,WeatherDisplay:10.37,2013-05-31 17:06:00,
2013-05-31 12:11:00,84.9,78.4,29.85,East,101,11.5,11.5,81,0.00,CLR,SKC,0.00,891.0,WeatherDisplay:10.37,2013-05-31 17:11:00,
2013-05-31 12:16:00,85.0,78.9,29.85,SE,133,5.8,5.8,82,0.00,CLR,SKC,0.00,925.0,WeatherDisplay:10.37,2013-05-31 17:16:00,
2013-05-31 12:21:00,85.3,78.8,29.85,SE,145,12.7,12.7,81,0.00,CLR,SKC,0.00,900.0,WeatherDisplay:10.37,2013-05-31 17:21:00,
2013-05-31 12:26:00,85.0,78.5,29.85,ESE,119,6.9,6.9,81,0.00,CLR,SKC,0.00,916.0,WeatherDisplay:10.37,2013-05-31 17:26:00,
2013-05-31 12:31:00,84.4,78.3,29.85,SE,142,15.0,15.0,82,0.00,CLR,SKC,0.00,930.0,WeatherDisplay:10.37,2013-05-31 17:31:00,
2013-05-31 12:36:00,84.6,78.5,29.85,SE,146,12.7,12.7,82,0.00,CLR,SKC,0.00,925.0,WeatherDisplay:10.37,2013-05-31 17:36:00,
2013-05-31 12:41:00,84.6,78.5,29.84,SE,141,11.5,11.5,82,0.00,CLR,SKC,0.00,930.0,WeatherDisplay:10.37,2013-05-31 17:41:00,
2013-05-31 12:46:00,84.7,78.2,29.84,SE,126,15.0,15.0,81,0.00,CLR,SKC,0.00,984.0,WeatherDisplay:10.37,2013-05-31 17:46:00,
2013-05-31 12:51:00,84.6,78.5,29.84,SE,140,11.5,11.5,82,0.00,CLR,SKC,0.00,933.0,WeatherDisplay:10.37,2013-05-31 17:51:00,
2013-05-31 12:56:00,84.6,78.1,29.84,ESE,115,15.0,15.0,81,0.00,CLR,SKC,0.00,933.0,WeatherDisplay:10.37,2013-05-31 17:56:00,
2013-05-31 13:01:00,84.1,78.0,29.84,SE,124,16.1,16.1,82,0.00,CLR,SKC,0.00,944.0,WeatherDisplay:10.37,2013-05-31 18:01:00,
2013-05-31 13:06:00,84.1,78.4,29.84,South,175,12.7,12.7,83,0.00,CLR,SKC,0.00,935.0,WeatherDisplay:10.37,2013-05-31 18:06:00,
2013-05-31 13:11:00,84.6,78.9,29.84,SE,137,10.4,10.4,83,0.00,CLR,SKC,0.00,939.0,WeatherDisplay:10.37,2013-05-31 18:11:00,
2013-05-31 13:16:00,84.7,78.2,29.84,SSE,147,13.8,13.8,81,0.00,CLR,SKC,0.00,935.0,WeatherDisplay:10.37,2013-05-31 18:16:00,
2013-05-31 13:21:00,85.0,78.5,29.84,SSE,156,13.8,13.8,81,0.00,CLR,SKC,0.00,949.0,WeatherDisplay:10.37,2013-05-31 18:21:00,
2013-05-31 13:26:00,85.2,78.3,29.84,SE,131,9.2,9.2,80,0.00,CLR,SKC,0.00,937.0,WeatherDisplay:10.37,2013-05-31 18:26:00,
2013-05-31 13:31:00,84.8,78.3,29.84,ESE,111,10.4,10.4,81,0.00,CLR,SKC,0.00,939.0,WeatherDisplay:10.37,2013-05-31 18:31:00,
2013-05-31 13:36:00,84.8,77.9,29.84,SE,137,15.0,15.0,80,0.00,CLR,SKC,0.00,976.0,WeatherDisplay:10.37,2013-05-31 18:36:00,
2013-05-31 13:41:00,84.5,78.4,29.83,ESE,114,15.0,15.0,82,0.00,CLR,SKC,0.00,930.0,WeatherDisplay:10.37,2013-05-31 18:41:00,
2013-05-31 13:46:00,84.5,78.4,29.83,SE,134,11.5,11.5,82,0.00,CLR,SKC,0.00,933.0,WeatherDisplay:10.37,2013-05-31 18:46:00,
2013-05-31 13:51:00,84.3,78.2,29.83,SSE,151,15.0,15.0,82,0.00,CLR,SKC,0.00,933.0,WeatherDisplay:10.37,2013-05-31 18:51:00,
2013-05-31 13:56:00,84.2,78.5,29.83,ESE,109,15.0,15.0,83,0.00,CLR,SKC,0.00,928.0,WeatherDisplay:10.37,2013-05-31 18:56:00,
2013-05-31 14:01:00,84.2,78.1,29.83,East,84,19.6,19.6,82,0.00,CLR,SKC,0.00,926.0,WeatherDisplay:10.37,2013-05-31 19:01:00,
2013-05-31 14:06:00,84.3,78.6,29.83,ESE,110,15.0,15.0,83,0.00,CLR,SKC,0.00,923.0,WeatherDisplay:10.37,2013-05-31 19:06:00,
2013-05-31 14:11:00,84.3,78.6,29.82,SSE,154,13.8,13.8,83,0.00,CLR,SKC,0.00,949.0,WeatherDisplay:10.37,2013-05-31 19:11:00,
2013-05-31 14:16:00,83.9,78.2,29.82,SE,146,16.1,16.1,83,0.00,CLR,SKC,0.00,944.0,WeatherDisplay:10.37,2013-05-31 19:16:00,
2013-05-31 14:21:00,83.9,78.5,29.82,SE,124,16.0,16.0,84,0.00,CLR,SKC,0.00,942.0,WeatherDisplay:10.37,2013-05-31 19:21:00,
2013-05-31 14:26:00,83.6,78.2,29.82,ESE,119,19.6,19.6,84,0.00,CLR,SKC,0.00,912.0,WeatherDisplay:10.37,2013-05-31 19:26:00,
2013-05-31 14:31:00,83.7,78.3,29.82,ESE,119,15.0,15.0,84,0.00,CLR,SKC,0.00,835.0,WeatherDisplay:10.37,2013-05-31 19:31:00,
2013-05-31 14:36:00,83.6,78.2,29.82,SE,133,16.1,16.1,84,0.00,CLR,SKC,0.00,891.0,WeatherDisplay:10.37,2013-05-31 19:36:00,
2013-05-31 14:41:00,83.7,78.3,29.81,ESE,115,13.8,13.8,84,0.00,CLR,SKC,0.00,888.0,WeatherDisplay:10.37,2013-05-31 19:41:00,
2013-05-31 14:46:00,83.8,78.1,29.81,SE,136,17.3,17.3,83,0.00,CLR,SKC,0.00,879.0,WeatherDisplay:10.37,2013-05-31 19:46:00,
2013-05-31 14:51:00,83.7,78.0,29.81,ESE,114,19.6,19.6,83,0.00,CLR,SKC,0.00,870.0,WeatherDisplay:10.37,2013-05-31 19:51:00,
2013-05-31 14:56:00,83.5,77.8,29.81,ESE,121,17.3,17.3,83,0.00,CLR,SKC,0.00,867.0,WeatherDisplay:10.37,2013-05-31 19:56:00,
2013-05-31 15:01:00,83.6,78.2,29.81,SE,131,15.0,15.0,84,0.00,CLR,SKC,0.00,849.0,WeatherDisplay:10.37,2013-05-31 20:01:00,
2013-05-31 15:06:00,83.8,78.1,29.81,ESE,123,14.0,14.0,83,0.00,CLR,SKC,0.00,847.0,WeatherDisplay:10.37,2013-05-31 20:06:00,
2013-05-31 15:11:00,83.7,78.0,29.81,East,80,19.6,19.6,83,0.00,CLR,SKC,0.00,838.0,WeatherDisplay:10.37,2013-05-31 20:11:00,
2013-05-31 15:16:00,83.9,78.2,29.81,South,189,16.1,16.1,83,0.00,CLR,SKC,0.00,830.0,WeatherDisplay:10.37,2013-05-31 20:16:00,
2013-05-31 15:21:00,83.9,78.2,29.81,SE,136,18.4,18.4,83,0.00,CLR,SKC,0.00,823.0,WeatherDisplay:10.37,2013-05-31 20:21:00,
2013-05-31 15:26:00,84.1,78.4,29.80,ESE,123,14.0,14.0,83,0.00,CLR,SKC,0.00,812.0,WeatherDisplay:10.37,2013-05-31 20:26:00,
2013-05-31 15:31:00,83.9,77.8,29.80,SE,130,18.0,18.0,82,0.00,CLR,SKC,0.00,802.0,WeatherDisplay:10.37,2013-05-31 20:31:00,
2013-05-31 15:36:00,84.0,77.9,29.80,East,100,17.3,17.3,82,0.00,CLR,SKC,0.00,791.0,WeatherDisplay:10.37,2013-05-31 20:36:00,
2013-05-31 15:41:00,83.8,78.1,29.79,SE,130,17.3,17.3,83,0.00,CLR,SKC,0.00,782.0,WeatherDisplay:10.37,2013-05-31 20:41:00,
2013-05-31 15:46:00,84.1,78.0,29.79,SE,137,18.4,18.4,82,0.00,CLR,SKC,0.00,770.0,WeatherDisplay:10.37,2013-05-31 20:46:00,
2013-05-31 15:51:00,84.3,78.2,29.79,SE,134,18.4,18.4,82,0.00,CLR,SKC,0.00,756.0,WeatherDisplay:10.37,2013-05-31 20:51:00,
2013-05-31 15:56:00,84.0,77.9,29.79,ESE,105,19.6,19.6,82,0.00,CLR,SKC,0.00,742.0,WeatherDisplay:10.37,2013-05-31 20:56:00,
2013-05-31 16:01:00,84.0,78.3,29.79,ESE,117,19.6,19.6,83,0.00,CLR,SKC,0.00,733.0,WeatherDisplay:10.37,2013-05-31 21:01:00,
2013-05-31 16:06:00,84.2,78.1,29.79,SE,124,15.0,15.0,82,0.00,CLR,SKC,0.00,717.0,WeatherDisplay:10.37,2013-05-31 21:06:00,
2013-05-31 16:11:00,84.1,78.4,29.79,SE,127,17.3,17.3,83,0.00,CLR,SKC,0.00,708.0,WeatherDisplay:10.37,2013-05-31 21:11:00,
2013-05-31 16:16:00,84.1,78.0,29.79,SE,134,20.0,20.0,82,0.00,CLR,SKC,0.00,696.0,WeatherDisplay:10.37,2013-05-31 21:16:00,
2013-05-31 16:21:00,84.1,78.0,29.79,East,101,18.4,18.4,82,0.00,CLR,SKC,0.00,682.0,WeatherDisplay:10.37,2013-05-31 21:21:00,
2013-05-31 16:26:00,84.0,77.9,29.78,SE,143,17.3,17.3,82,0.00,CLR,SKC,0.00,666.0,WeatherDisplay:10.37,2013-05-31 21:26:00,
2013-05-31 16:31:00,83.8,78.1,29.78,ESE,119,19.0,19.0,83,0.00,CLR,SKC,0.00,657.0,WeatherDisplay:10.37,2013-05-31 21:31:00,
2013-05-31 16:36:00,83.8,78.1,29.78,SSE,150,12.7,12.7,83,0.00,CLR,SKC,0.00,642.0,WeatherDisplay:10.37,2013-05-31 21:36:00,
2013-05-31 16:41:00,83.7,78.0,29.77,ESE,114,12.7,12.7,83,0.00,CLR,SKC,0.00,626.0,WeatherDisplay:10.37,2013-05-31 21:41:00,
2013-05-31 16:46:00,83.8,78.1,29.77,SE,126,15.0,15.0,83,0.00,CLR,SKC,0.00,617.0,WeatherDisplay:10.37,2013-05-31 21:46:00,
2013-05-31 16:51:00,83.7,78.0,29.77,SE,133,19.0,19.0,83,0.00,CLR,SKC,0.00,598.0,WeatherDisplay:10.37,2013-05-31 21:51:00,
2013-05-31 16:56:00,83.6,78.2,29.77,SE,134,15.0,15.0,84,0.00,CLR,SKC,0.00,584.0,WeatherDisplay:10.37,2013-05-31 21:56:00,
2013-05-31 17:01:00,83.4,78.1,29.77,SE,130,17.3,17.3,84,0.00,CLR,SKC,0.00,575.0,WeatherDisplay:10.37,2013-05-31 22:01:00,
2013-05-31 17:06:00,83.3,78.0,29.77,SE,127,17.3,17.3,84,0.00,CLR,SKC,0.00,561.0,WeatherDisplay:10.37,2013-05-31 22:06:00,
2013-05-31 17:11:00,83.1,77.8,29.76,SE,134,19.6,19.6,84,0.00,CLR,SKC,0.00,543.0,WeatherDisplay:10.37,2013-05-31 22:11:00,
2013-05-31 17:16:00,83.0,77.7,29.76,SE,133,19.6,19.6,84,0.00,CLR,SKC,0.00,534.0,WeatherDisplay:10.37,2013-05-31 22:16:00,
2013-05-31 17:21:00,82.9,77.9,29.76,ESE,119,16.1,16.1,85,0.00,CLR,SKC,0.00,506.0,WeatherDisplay:10.37,2013-05-31 22:21:00,
2013-05-31 17:26:00,82.8,77.8,29.76,SE,132,19.6,19.6,85,0.00,CLR,SKC,0.00,504.0,WeatherDisplay:10.37,2013-05-31 22:26:00,
2013-05-31 17:31:00,82.9,77.9,29.76,ESE,111,17.0,17.0,85,0.00,CLR,SKC,0.00,478.0,WeatherDisplay:10.37,2013-05-31 22:31:00,
2013-05-31 17:36:00,82.6,77.6,29.76,SE,130,21.9,21.9,85,0.00,CLR,SKC,0.00,459.0,WeatherDisplay:10.37,2013-05-31 22:36:00,
2013-05-31 17:41:00,82.6,78.0,29.76,ENE,74,17.3,17.3,86,0.00,CLR,SKC,0.00,443.0,WeatherDisplay:10.37,2013-05-31 22:41:00,
2013-05-31 17:46:00,82.8,77.8,29.76,SE,130,19.0,19.0,85,0.00,CLR,SKC,0.00,427.0,WeatherDisplay:10.37,2013-05-31 22:46:00,
2013-05-31 17:51:00,82.6,78.0,29.76,ESE,121,19.6,19.6,86,0.00,CLR,SKC,0.00,403.0,WeatherDisplay:10.37,2013-05-31 22:51:00,
2013-05-31 17:56:00,82.7,78.1,29.76,ESE,113,13.8,13.8,86,0.00,CLR,SKC,0.00,394.0,WeatherDisplay:10.37,2013-05-31 22:56:00,
2013-05-31 18:01:00,82.7,78.1,29.76,ESE,113,19.6,19.6,86,0.00,CLR,SKC,0.00,381.0,WeatherDisplay:10.37,2013-05-31 23:01:00,
2013-05-31 18:06:00,82.6,78.0,29.76,ESE,123,18.4,18.4,86,0.00,CLR,SKC,0.00,362.0,WeatherDisplay:10.37,2013-05-31 23:06:00,
2013-05-31 18:11:00,82.5,78.2,29.76,East,90,18.4,18.4,87,0.00,CLR,SKC,0.00,357.0,WeatherDisplay:10.37,2013-05-31 23:11:00,
2013-05-31 18:16:00,82.5,77.9,29.76,SE,134,17.3,17.3,86,0.00,CLR,SKC,0.00,276.0,WeatherDisplay:10.37,2013-05-31 23:16:00,
2013-05-31 18:21:00,82.4,78.1,29.76,ESE,110,19.6,19.6,87,0.00,CLR,SKC,0.00,339.0,WeatherDisplay:10.37,2013-05-31 23:21:00,
2013-05-31 18:26:00,82.3,78.0,29.76,ESE,117,15.0,15.0,87,0.00,CLR,SKC,0.00,311.0,WeatherDisplay:10.37,2013-05-31 23:26:00,
2013-05-31 18:31:00,82.3,78.0,29.76,ESE,114,13.0,13.0,87,0.00,CLR,SKC,0.00,313.0,WeatherDisplay:10.37,2013-05-31 23:31:00,
2013-05-31 18:36:00,82.2,77.9,29.76,ESE,120,13.8,13.8,87,0.00,CLR,SKC,0.00,288.0,WeatherDisplay:10.37,2013-05-31 23:36:00,
2013-05-31 18:41:00,82.2,77.9,29.76,SE,126,18.4,18.4,87,0.00,CLR,SKC,0.00,271.0,WeatherDisplay:10.37,2013-05-31 23:41:00,
2013-05-31 18:46:00,82.2,77.9,29.76,ESE,113,16.1,16.1,87,0.00,CLR,SKC,0.00,237.0,WeatherDisplay:10.37,2013-05-31 23:46:00,
2013-05-31 18:51:00,82.2,78.3,29.76,ESE,116,15.0,15.0,88,0.00,CLR,SKC,0.00,255.0,WeatherDisplay:10.37,2013-05-31 23:51:00,
2013-05-31 18:56:00,82.3,78.0,29.77,ESE,118,12.0,12.0,87,0.00,CLR,SKC,0.00,244.0,WeatherDisplay:10.37,2013-05-31 23:56:00,
2013-05-31 19:01:00,82.2,77.9,29.77,ESE,117,18.0,18.0,87,0.00,CLR,SKC,0.00,153.0,WeatherDisplay:10.37,2013-06-01 00:01:00,
2013-05-31 19:06:00,82.0,77.7,29.77,SE,125,18.4,18.4,87,0.00,CLR,SKC,0.00,169.0,WeatherDisplay:10.37,2013-06-01 00:06:00,
2013-05-31 19:11:00,81.8,77.9,29.77,SE,142,17.3,17.3,88,0.00,CLR,SKC,0.00,202.0,WeatherDisplay:10.37,2013-06-01 00:11:00,
2013-05-31 19:16:00,81.7,77.8,29.77,ESE,108,15.0,15.0,88,0.00,CLR,SKC,0.00,176.0,WeatherDisplay:10.37,2013-06-01 00:16:00,
2013-05-31 19:21:00,81.6,77.7,29.77,SE,136,15.0,15.0,88,0.00,CLR,SKC,0.00,79.0,WeatherDisplay:10.37,2013-06-01 00:21:00,
2013-05-31 19:26:00,81.4,77.5,29.77,SE,126,15.0,15.0,88,0.00,CLR,SKC,0.00,76.0,WeatherDisplay:10.37,2013-06-01 00:26:00,
2013-05-31 19:31:00,81.4,77.5,29.77,SE,130,17.3,17.3,88,0.00,CLR,SKC,0.00,72.0,WeatherDisplay:10.37,2013-06-01 00:31:00,
2013-05-31 19:36:00,81.4,77.8,29.77,SE,126,16.1,16.1,89,0.00,CLR,SKC,0.00,69.0,WeatherDisplay:10.37,2013-06-01 00:36:00,
2013-05-31 19:41:00,81.3,77.7,29.77,ESE,116,16.0,16.0,89,0.00,CLR,SKC,0.00,77.0,WeatherDisplay:10.37,2013-06-01 00:41:00,
2013-05-31 19:46:00,81.1,77.5,29.77,SE,127,16.0,16.0,89,0.00,CLR,SKC,0.00,39.0,WeatherDisplay:10.37,2013-06-01 00:46:00,
2013-05-31 19:51:00,81.0,77.8,29.77,SE,134,10.4,10.4,90,0.00,CLR,SKC,0.00,37.0,WeatherDisplay:10.37,2013-06-01 00:51:00,
2013-05-31 19:56:00,80.9,77.7,29.78,ESE,103,14.0,14.0,90,0.00,CLR,SKC,0.00,28.0,WeatherDisplay:10.37,2013-06-01 00:56:00,
2013-05-31 20:01:00,80.9,77.7,29.78,ESE,114,16.1,16.1,90,0.00,CLR,SKC,0.00,18.0,WeatherDisplay:10.37,2013-06-01 01:01:00,
2013-05-31 20:06:00,80.8,77.6,29.78,ESE,123,16.1,16.1,90,0.00,CLR,SKC,0.00,12.0,WeatherDisplay:10.37,2013-06-01 01:06:00,
2013-05-31 20:11:00,80.7,77.5,29.78,ESE,121,13.8,13.8,90,0.00,CLR,SKC,0.00,7.0,WeatherDisplay:10.37,2013-06-01 01:11:00,
2013-05-31 20:16:00,80.7,77.5,29.78,SE,134,14.0,14.0,90,0.00,CLR,SKC,0.00,0.0,WeatherDisplay:10.37,2013-06-01 01:16:00,
2013-05-31 20:21:00,80.7,77.5,29.78,SE,131,15.0,15.0,90,0.00,CLR,SKC,0.00,0.0,WeatherDisplay:10.37,2013-06-01 01:21:00,
2013-05-31 20:26:00,80.7,77.5,29.78,SSE,157,11.5,11.5,90,0.00,CLR,SKC,0.00,0.0,WeatherDisplay:10.37,2013-06-01 01:26:00,
2013-05-31 20:31:00,80.7,77.5,29.78,SE,129,13.8,13.8,90,0.00,CLR,SKC,0.00,0.0,WeatherDisplay:10.37,2013-06-01 01:31:00,
2013-05-31 20:36:00,80.6,77.4,29.78,East,95,19.6,19.6,90,0.00,CLR,SKC,0.00,0.0,WeatherDisplay:10.37,2013-06-01 01:36:00,
2013-05-31 20:41:00,80.4,77.2,29.78,SE,134,15.0,15.0,90,0.00,CLR,SKC,0.00,0.0,WeatherDisplay:10.37,2013-06-01 01:41:00,
2013-05-31 20:46:00,80.5,77.3,29.78,SE,127,17.3,17.3,90,0.00,CLR,SKC,0.00,0.0,WeatherDisplay:10.37,2013-06-01 01:46:00,
2013-05-31 20:51:00,80.5,77.6,29.78,SE,128,15.0,15.0,91,0.00,CLR,SKC,0.00,0.0,WeatherDisplay:10.37,2013-06-01 01:51:00,
2013-05-31 20:56:00,80.5,77.6,29.79,SE,130,15.0,15.0,91,0.00,CLR,SKC,0.00,0.0,WeatherDisplay:10.37,2013-06-01 01:56:00,
2013-05-31 21:01:00,80.5,77.6,29.79,SSE,160,13.0,13.0,91,0.00,CLR,SKC,0.00,0.0,WeatherDisplay:10.37,2013-06-01 02:01:00,
2013-05-31 21:06:00,80.3,77.4,29.79,ESE,119,13.8,13.8,91,0.00,CLR,SKC,0.00,0.0,WeatherDisplay:10.37,2013-06-01 02:06:00,
2013-05-31 21:11:00,80.3,77.1,29.78,SE,124,17.3,17.3,90,0.00,CLR,SKC,0.00,0.0,WeatherDisplay:10.37,2013-06-01 02:11:00,
2013-05-31 21:16:00,80.4,77.5,29.78,SSE,154,15.0,15.0,91,0.00,CLR,SKC,0.00,0.0,WeatherDisplay:10.37,2013-06-01 02:16:00,
2013-05-31 21:21:00,80.3,77.4,29.78,SE,146,16.1,16.1,91,0.00,CLR,SKC,0.00,0.0,WeatherDisplay:10.37,2013-06-01 02:21:00,
2013-05-31 21:26:00,80.3,77.1,29.79,ESE,112,12.7,12.7,90,0.00,CLR,SKC,0.00,0.0,WeatherDisplay:10.37,2013-06-01 02:26:00,
2013-05-31 21:31:00,80.3,77.4,29.79,SE,138,10.4,10.4,91,0.00,CLR,SKC,0.00,0.0,WeatherDisplay:10.37,2013-06-01 02:31:00,
2013-05-31 21:36:00,80.3,77.1,29.79,ESE,113,11.5,11.5,90,0.00,CLR,SKC,0.00,0.0,WeatherDisplay:10.37,2013-06-01 02:36:00,
2013-05-31 21:41:00,80.4,77.5,29.79,ESE,117,11.5,11.5,91,0.00,CLR,SKC,0.00,0.0,WeatherDisplay:10.37,2013-06-01 02:41:00,
2013-05-31 21:46:00,80.3,77.1,29.79,SE,130,11.5,11.5,90,0.00,CLR,SKC,0.00,0.0,WeatherDisplay:10.37,2013-06-01 02:46:00,
2013-05-31 21:51:00,80.3,77.1,29.79,SE,132,13.8,13.8,90,0.00,CLR,SKC,0.00,0.0,WeatherDisplay:10.37,2013-06-01 02:51:00,
2013-05-31 21:56:00,80.3,77.1,29.79,ESE,102,15.0,15.0,90,0.00,CLR,SKC,0.00,0.0,WeatherDisplay:10.37,2013-06-01 02:56:00,
2013-05-31 22:01:00,80.3,77.1,29.79,SE,133,13.0,13.0,90,0.00,CLR,SKC,0.00,0.0,WeatherDisplay:10.37,2013-06-01 03:01:00,
2013-05-31 22:06:00,80.3,77.4,29.79,ESE,109,13.8,13.8,91,0.00,CLR,SKC,0.00,0.0,WeatherDisplay:10.37,2013-06-01 03:06:00,
2013-05-31 22:11:00,80.2,77.3,29.80,East,101,15.0,15.0,91,0.00,CLR,SKC,0.00,0.0,WeatherDisplay:10.37,2013-06-01 03:11:00,
2013-05-31 22:16:00,80.2,77.3,29.80,SE,128,16.1,16.1,91,0.00,CLR,SKC,0.00,0.0,WeatherDisplay:10.37,2013-06-01 03:16:00,
2013-05-31 22:21:00,80.2,77.3,29.80,SE,136,11.5,11.5,91,0.00,CLR,SKC,0.00,0.0,WeatherDisplay:10.37,2013-06-01 03:21:00,
2013-05-31 22:26:00,80.2,77.3,29.81,ESE,110,9.2,9.2,91,0.00,CLR,SKC,0.00,0.0,WeatherDisplay:10.37,2013-06-01 03:26:00,
2013-05-31 22:31:00,80.2,77.3,29.81,SE,126,15.0,15.0,91,0.00,CLR,SKC,0.00,0.0,WeatherDisplay:10.37,2013-06-01 03:31:00,
2013-05-31 22:36:00,80.2,77.3,29.81,ESE,109,13.0,13.0,91,0.00,CLR,SKC,0.00,0.0,WeatherDisplay:10.37,2013-06-01 03:36:00,
2013-05-31 22:41:00,80.2,77.3,29.80,ESE,115,12.0,12.0,91,0.00,CLR,SKC,0.00,0.0,WeatherDisplay:10.37,2013-06-01 03:41:00,
2013-05-31 22:46:00,80.2,77.3,29.80,ESE,113,11.5,11.5,91,0.00,CLR,SKC,0.00,0.0,WeatherDisplay:10.37,2013-06-01 03:46:00,
2013-05-31 22:51:00,80.2,77.3,29.80,ESE,106,13.8,13.8,91,0.00,CLR,SKC,0.00,0.0,WeatherDisplay:10.37,2013-06-01 03:51:00,
2013-05-31 22:56:00,80.1,77.2,29.81,ESE,119,11.5,11.5,91,0.00,CLR,SKC,0.00,0.0,WeatherDisplay:10.37,2013-06-01 03:56:00,
2013-05-31 23:01:00,80.2,77.3,29.81,SE,137,11.5,11.5,91,0.00,CLR,SKC,0.00,0.0,WeatherDisplay:10.37,2013-06-01 04:01:00,
2013-05-31 23:06:00,80.1,77.2,29.81,SE,140,13.8,13.8,91,0.00,CLR,SKC,0.00,0.0,WeatherDisplay:10.37,2013-06-01 04:06:00,
2013-05-31 23:11:00,80.1,77.2,29.81,ESE,106,11.5,11.5,91,0.00,CLR,SKC,0.00,0.0,WeatherDisplay:10.37,2013-06-01 04:11:00,
2013-05-31 23:16:00,80.1,77.2,29.81,ESE,118,18.4,18.4,91,0.00,CLR,SKC,0.00,0.0,WeatherDisplay:10.37,2013-06-01 04:16:00,
2013-05-31 23:21:00,80.1,77.2,29.81,SSE,155,10.4,10.4,91,0.00,CLR,SKC,0.00,0.0,WeatherDisplay:10.37,2013-06-01 04:21:00,
2013-05-31 23:26:00,80.0,77.1,29.81,SE,140,13.0,13.0,91,0.00,CLR,SKC,0.00,0.0,WeatherDisplay:10.37,2013-06-01 04:26:00,
2013-05-31 23:31:00,80.0,77.5,29.81,SE,124,11.5,11.5,92,0.00,CLR,SKC,0.00,0.0,WeatherDisplay:10.37,2013-06-01 04:31:00,
2013-05-31 23:36:00,80.0,77.5,29.81,ESE,113,16.1,16.1,92,0.00,CLR,SKC,0.00,0.0,WeatherDisplay:10.37,2013-06-01 04:36:00,
2013-05-31 23:41:00,80.0,77.5,29.81,ESE,122,12.7,12.7,92,0.00,CLR,SKC,0.00,0.0,WeatherDisplay:10.37,2013-06-01 04:41:00,
2013-05-31 23:46:00,80.0,77.5,29.81,SSE,165,10.4,10.4,92,0.00,CLR,SKC,0.00,0.0,WeatherDisplay:10.37,2013-06-01 04:46:00,
2013-05-31 23:51:00,80.0,77.1,29.81,ESE,119,15.0,15.0,91,0.00,CLR,SKC,0.00,0.0,WeatherDisplay:10.37,2013-06-01 04:51:00,
2013-05-31 23:56:00,80.0,77.1,29.80,ESE,117,13.8,13.8,91,0.00,CLR,SKC,0.00,0.0,WeatherDisplay:10.37,2013-06-01 04:56:00,